Time;durP1;ratioP1;P1;durP2;ratioP2;P2;SDS_P1;SDS_P2;PMS_P1;PMS_P2;Temp;Humidity;BMP_temperature;BMP_pressure;BME280_temperature;BME280_humidity;BME280_pressure;Samples;Min_cycle;Max_cycle;Signal;HPM_P1;HPM_P2
2021/12/27 00:01:20;;;;;;;6.97;6.37;;;7.70;97.00;;;;;;4937389;28;20533;-81
2021/12/27 00:03:49;;;;;;;8.17;7.47;;;7.70;96.70;;;;;;4939265;28;20813;-86
2021/12/27 00:06:15;;;;;;;8.70;7.90;;;7.60;97.00;;;;;;4938797;28;20527;-88
2021/12/27 00:08:42;;;;;;;9.83;8.83;;;7.70;97.30;;;;;;4938796;28;20942;-87
2021/12/27 00:11:10;;;;;;;8.93;8.10;;;7.60;97.00;;;;;;4938079;28;20463;-86
2021/12/27 00:13:36;;;;;;;9.30;8.37;;;7.60;97.50;;;;;;4938312;28;20464;-86
2021/12/27 00:16:03;;;;;;;9.13;8.03;;;7.60;97.70;;;;;;4938835;28;20465;-88
2021/12/27 00:18:29;;;;;;;8.47;7.67;;;7.60;97.40;;;;;;4939300;28;20470;-87
2021/12/27 00:20:55;;;;;;;9.63;8.73;;;7.60;97.20;;;;;;4939210;28;20450;-87
2021/12/27 00:23:21;;;;;;;10.70;9.67;;;7.70;97.90;;;;;;4940507;28;20868;-87
2021/12/27 00:25:46;;;;;;;9.50;8.37;;;7.60;97.50;;;;;;4938347;28;20465;-86
2021/12/27 00:28:12;;;;;;;9.67;8.67;;;7.60;97.80;;;;;;4937483;28;20513;-87
2021/12/27 00:30:38;;;;;;;10.47;9.13;;;7.60;97.70;;;;;;4937040;28;20589;-87
2021/12/27 00:33:05;;;;;;;9.70;8.50;;;7.70;97.60;;;;;;4939782;28;20331;-87
2021/12/27 00:35:32;;;;;;;11.50;10.40;;;7.70;97.40;;;;;;4937632;28;20234;-86
2021/12/27 00:37:59;;;;;;;10.23;9.10;;;7.60;97.60;;;;;;4940645;28;20455;-86
2021/12/27 00:40:25;;;;;;;10.50;9.43;;;7.60;98.20;;;;;;4940823;28;20453;-87
2021/12/27 00:42:51;;;;;;;10.00;9.00;;;7.70;98.50;;;;;;4938410;28;20470;-86
2021/12/27 00:45:18;;;;;;;11.33;10.23;;;7.70;97.60;;;;;;4937356;28;20473;-86
2021/12/27 00:47:43;;;;;;;11.00;10.00;;;7.70;98.10;;;;;;4937977;28;20474;-87
2021/12/27 00:50:11;;;;;;;11.17;10.07;;;7.60;97.60;;;;;;4936654;28;20975;-87
2021/12/27 00:52:37;;;;;;;9.53;8.57;;;7.60;98.00;;;;;;4938101;28;20234;-86
2021/12/27 00:55:10;;;;;;;10.20;9.20;;;7.60;98.00;;;;;;4936404;28;20491;-86
2021/12/27 00:57:36;;;;;;;10.77;9.67;;;7.60;97.80;;;;;;4936409;28;20462;-86
2021/12/27 01:00:07;;;;;;;10.60;9.40;;;7.60;97.80;;;;;;4938738;28;20548;-86
2021/12/27 01:02:33;;;;;;;10.90;9.90;;;7.70;98.00;;;;;;4934994;28;20458;-87
2021/12/27 01:04:58;;;;;;;11.87;10.63;;;7.60;97.80;;;;;;4938507;28;20993;-86
2021/12/27 01:07:24;;;;;;;11.90;10.80;;;7.60;97.40;;;;;;4938388;28;20238;-85
2021/12/27 01:17:51;;;;;;;10.10;9.10;;;7.60;97.40;;;;;;4917905;29;20459;-86
2021/12/27 01:20:20;;;;;;;9.73;8.83;;;7.60;97.10;;;;;;4917160;28;20460;-86
2021/12/27 01:22:47;;;;;;;10.23;9.23;;;7.50;96.70;;;;;;4919329;28;20289;-85
2021/12/27 01:25:12;;;;;;;9.43;8.53;;;7.50;96.70;;;;;;4917925;28;20810;-86
2021/12/27 01:27:39;;;;;;;11.93;9.77;;;7.50;96.50;;;;;;4921400;28;20474;-85
2021/12/27 01:30:09;;;;;;;10.87;9.73;;;7.50;96.60;;;;;;4918633;28;20455;-86
2021/12/27 01:32:41;;;;;;;11.13;9.40;;;7.50;96.50;;;;;;4917588;28;20463;-86
2021/12/27 01:35:07;;;;;;;11.30;9.73;;;7.40;96.60;;;;;;4917638;29;20474;-86
2021/12/27 01:37:33;;;;;;;15.20;12.10;;;7.40;96.90;;;;;;4918119;29;20518;-87
2021/12/27 01:39:59;;;;;;;12.03;9.87;;;7.40;97.00;;;;;;4915327;29;20467;-87
2021/12/27 01:42:24;;;;;;;10.63;9.57;;;7.50;96.60;;;;;;4917645;29;20258;-87
2021/12/27 01:44:50;;;;;;;11.23;10.17;;;7.40;96.90;;;;;;4917536;29;20227;-86
2021/12/27 01:47:16;;;;;;;10.80;9.77;;;7.40;96.30;;;;;;4917363;29;20703;-85
2021/12/27 01:49:42;;;;;;;11.43;10.43;;;7.50;96.50;;;;;;4916896;29;20251;-86
2021/12/27 01:52:07;;;;;;;10.77;9.80;;;7.50;96.40;;;;;;4916901;29;20480;-86
2021/12/27 01:54:33;;;;;;;11.50;10.43;;;7.40;95.90;;;;;;4915917;29;20263;-85
2021/12/27 01:57:00;;;;;;;10.47;9.43;;;7.40;95.90;;;;;;4917172;29;20293;-86
2021/12/27 01:59:26;;;;;;;10.67;9.67;;;7.40;96.40;;;;;;4916312;29;20263;-86
2021/12/27 02:01:52;;;;;;;10.60;9.60;;;7.30;96.40;;;;;;4917888;29;20542;-85
2021/12/27 02:04:18;;;;;;;10.50;9.50;;;7.30;96.30;;;;;;4916703;29;20542;-86
2021/12/27 02:06:44;;;;;;;13.23;9.20;;;7.30;96.50;;;;;;4916384;29;20232;-86
2021/12/27 02:09:09;;;;;;;12.13;9.30;;;7.30;95.90;;;;;;4915580;28;20451;-86
2021/12/27 02:11:35;;;;;;;10.73;9.70;;;7.30;95.10;;;;;;4916815;29;20281;-86
2021/12/27 02:14:08;;;;;;;9.50;8.67;;;7.30;95.70;;;;;;4915950;28;20354;-86
2021/12/27 02:16:36;;;;;;;9.77;8.57;;;7.30;95.80;;;;;;4914081;28;20231;-84
2021/12/27 02:19:03;;;;;;;10.97;9.83;;;7.20;95.60;;;;;;4916573;29;20506;-86
2021/12/27 02:21:29;;;;;;;9.43;8.63;;;7.20;95.40;;;;;;4914531;28;20443;-86
2021/12/27 02:23:56;;;;;;;9.70;8.80;;;7.20;95.30;;;;;;4917204;29;20455;-85
2021/12/27 02:26:22;;;;;;;9.33;8.43;;;7.20;95.80;;;;;;4915644;28;20226;-86
2021/12/27 02:28:48;;;;;;;8.73;7.93;;;7.20;95.20;;;;;;4918919;29;20478;-86
2021/12/27 02:31:15;;;;;;;11.13;8.80;;;7.20;94.90;;;;;;4917436;28;20459;-86
2021/12/27 02:33:42;;;;;;;11.03;10.10;;;7.20;95.80;;;;;;4918137;29;20227;-86
2021/12/27 02:36:11;;;;;;;10.20;9.17;;;7.20;95.50;;;;;;4916685;28;20463;-87
2021/12/27 02:38:40;;;;;;;10.63;9.47;;;7.20;95.40;;;;;;4918621;29;20829;-87
2021/12/27 02:41:07;;;;;;;10.20;9.10;;;7.30;95.90;;;;;;4915634;28;20459;-87
2021/12/27 02:43:35;;;;;;;10.17;9.10;;;7.20;95.80;;;;;;4918873;29;20466;-86
2021/12/27 02:46:06;;;;;;;9.23;8.40;;;7.20;95.80;;;;;;4915557;28;20462;-86
2021/12/27 02:48:36;;;;;;;8.70;7.90;;;7.30;95.90;;;;;;4918076;29;20475;-86
2021/12/27 02:51:02;;;;;;;9.07;8.20;;;7.30;95.90;;;;;;4913901;28;20465;-87
2021/12/27 02:53:28;;;;;;;9.00;8.17;;;7.30;95.90;;;;;;4916156;29;20464;-86
2021/12/27 02:55:56;;;;;;;8.70;7.90;;;7.30;95.20;;;;;;4915911;28;20468;-86
2021/12/27 02:58:23;;;;;;;8.10;7.40;;;7.30;95.70;;;;;;4918000;29;20499;-86
2021/12/27 03:01:10;;;;;;;7.10;6.50;;;7.30;94.60;;;;;;4916566;28;20470;-87
2021/12/27 03:03:37;;;;;;;8.40;7.60;;;7.30;95.10;;;;;;4916527;28;20856;-86
2021/12/27 03:06:04;;;;;;;8.20;7.40;;;7.30;94.70;;;;;;4920085;29;20459;-86
2021/12/27 03:08:30;;;;;;;7.97;7.17;;;7.30;94.70;;;;;;4920344;28;20474;-86
2021/12/27 03:10:58;;;;;;;8.13;7.40;;;7.20;94.90;;;;;;4919244;29;20550;-86
2021/12/27 03:13:28;;;;;;;7.40;6.80;;;7.30;94.80;;;;;;4919018;28;20578;-87
2021/12/27 03:15:57;;;;;;;8.07;7.37;;;7.30;94.90;;;;;;4919445;28;20471;-86
2021/12/27 03:18:23;;;;;;;7.43;6.73;;;7.30;95.10;;;;;;4915170;28;20721;-88
2021/12/27 03:20:50;;;;;;;7.13;6.53;;;7.30;95.10;;;;;;4914515;29;20899;-87
2021/12/27 03:23:16;;;;;;;6.40;5.80;;;7.30;94.40;;;;;;4914212;28;20494;-87
2021/12/27 03:25:42;;;;;;;7.27;6.57;;;7.40;93.20;;;;;;4918173;29;20793;-86
2021/12/27 03:28:08;;;;;;;6.97;6.23;;;7.40;93.00;;;;;;4915163;28;20473;-86
2021/12/27 03:30:34;;;;;;;7.10;5.50;;;7.40;92.10;;;;;;4917207;29;20277;-86
2021/12/27 03:33:00;;;;;;;7.33;6.73;;;7.40;90.60;;;;;;4918628;29;20238;-85
2021/12/27 03:35:29;;;;;;;6.80;6.20;;;7.40;91.00;;;;;;4918325;29;20459;-86
2021/12/27 03:37:57;;;;;;;6.03;5.53;;;7.40;91.60;;;;;;4916204;28;20458;-86
2021/12/27 03:40:24;;;;;;;6.07;5.50;;;7.40;92.20;;;;;;4917827;29;20990;-87
2021/12/27 03:42:50;;;;;;;5.83;5.40;;;7.40;92.30;;;;;;4917978;28;20565;-86
2021/12/27 03:45:29;;;;;;;6.40;5.77;;;7.40;92.50;;;;;;4917359;29;20455;-85
2021/12/27 03:47:56;;;;;;;6.13;5.57;;;7.40;92.40;;;;;;4933417;28;20458;-87
2021/12/27 03:50:24;;;;;;;5.77;4.97;;;7.40;92.20;;;;;;4932583;28;20447;-85
2021/12/27 03:52:51;;;;;;;6.33;5.73;;;7.40;92.10;;;;;;4934885;28;21041;-85
2021/12/27 03:55:16;;;;;;;5.30;4.90;;;7.40;91.70;;;;;;4931860;28;20460;-86
2021/12/27 03:57:51;;;;;;;4.40;4.10;;;7.50;91.70;;;;;;4936297;28;20893;-86
2021/12/27 04:02:51;;;;;;;5.80;5.30;;;7.50;90.60;;;;;;4933322;28;20466;-85
2021/12/27 04:05:18;;;;;;;4.47;4.07;;;7.50;89.30;;;;;;4931154;28;20967;-86
2021/12/27 04:07:45;;;;;;;5.27;3.90;;;7.50;89.30;;;;;;4932826;28;20493;-86
2021/12/27 04:10:12;;;;;;;5.70;4.80;;;7.50;86.40;;;;;;4913931;28;20463;-86
2021/12/27 04:12:38;;;;;;;4.73;4.43;;;7.50;86.50;;;;;;4913026;28;20448;-84
2021/12/27 04:15:07;;;;;;;5.10;4.70;;;7.50;87.40;;;;;;4914894;29;20480;-86
2021/12/27 04:17:32;;;;;;;4.50;4.10;;;7.50;90.40;;;;;;4912886;28;20473;-86
2021/12/27 04:19:58;;;;;;;4.80;4.40;;;7.40;90.60;;;;;;4915828;28;20822;-88
2021/12/27 04:22:24;;;;;;;5.50;5.00;;;7.50;90.60;;;;;;4913551;28;20320;-86
2021/12/27 04:24:50;;;;;;;4.73;4.33;;;7.50;89.30;;;;;;4915421;29;20567;-86
2021/12/27 04:27:20;;;;;;;4.47;3.60;;;7.50;89.40;;;;;;4916298;28;20691;-87
2021/12/27 04:29:46;;;;;;;3.57;3.30;;;7.60;86.40;;;;;;4920214;28;20313;-87
2021/12/27 04:32:12;;;;;;;3.63;3.33;;;7.50;86.30;;;;;;4936267;28;20941;-87
2021/12/27 04:34:37;;;;;;;4.40;4.00;;;7.50;87.20;;;;;;4938781;28;20454;-87
2021/12/27 04:37:04;;;;;;;3.17;2.97;;;7.50;87.60;;;;;;4936347;28;20496;-88
2021/12/27 04:39:30;;;;;;;4.30;4.00;;;7.50;89.30;;;;;;4941783;28;20318;-88
2021/12/27 04:41:56;;;;;;;4.03;3.63;;;7.50;87.90;;;;;;4936726;28;20489;-86
2021/12/27 04:44:22;;;;;;;3.70;3.40;;;7.50;88.70;;;;;;4940703;28;20529;-87
2021/12/27 04:46:47;;;;;;;5.47;3.80;;;7.50;87.40;;;;;;4937043;28;20550;-87
2021/12/27 04:49:13;;;;;;;5.20;3.80;;;7.50;88.60;;;;;;4939707;28;20236;-87
2021/12/27 04:51:39;;;;;;;3.47;3.17;;;7.50;88.50;;;;;;4936401;28;20227;-88
2021/12/27 04:54:07;;;;;;;4.50;4.10;;;7.50;86.50;;;;;;4940778;28;20701;-87
2021/12/27 04:56:33;;;;;;;3.20;2.90;;;7.50;86.80;;;;;;4937635;28;20223;-88
2021/12/27 04:58:59;;;;;;;4.70;3.53;;;7.50;87.70;;;;;;4941230;28;20791;-87
2021/12/27 05:01:24;;;;;;;3.50;3.20;;;7.50;87.90;;;;;;4945916;28;20655;-85
2021/12/27 05:03:50;;;;;;;3.67;3.33;;;7.50;87.70;;;;;;4945538;28;20230;-86
2021/12/27 05:06:17;;;;;;;3.17;2.93;;;7.50;87.90;;;;;;4943286;28;20317;-82
2021/12/27 05:08:42;;;;;;;3.23;3.03;;;7.50;87.80;;;;;;4940158;28;20231;-82
2021/12/27 05:11:08;;;;;;;3.17;2.97;;;7.50;87.90;;;;;;4938163;28;20959;-82
2021/12/27 05:13:35;;;;;;;3.97;3.57;;;7.50;89.30;;;;;;4940830;28;20231;-81
2021/12/27 05:16:01;;;;;;;3.07;2.87;;;7.50;88.60;;;;;;4940271;28;20466;-82
2021/12/27 05:18:27;;;;;;;3.60;3.30;;;7.50;87.50;;;;;;4941340;28;20467;-82
2021/12/27 05:20:53;;;;;;;3.60;3.10;;;7.50;88.30;;;;;;4940084;28;20517;-82
2021/12/27 05:23:18;;;;;;;2.83;2.63;;;7.60;86.60;;;;;;4941074;28;20322;-82
2021/12/27 05:25:44;;;;;;;3.20;3.00;;;7.50;86.70;;;;;;4939155;28;20497;-83
2021/12/27 05:28:10;;;;;;;3.30;3.00;;;7.50;87.80;;;;;;4940971;28;20269;-82
2021/12/27 05:30:37;;;;;;;3.80;3.33;;;7.60;86.50;;;;;;4940642;28;20270;-86
2021/12/27 05:33:03;;;;;;;2.67;2.47;;;7.60;87.70;;;;;;4940183;28;20869;-81
2021/12/27 05:35:29;;;;;;;3.03;2.73;;;7.50;85.30;;;;;;4939512;28;20470;-81
2021/12/27 05:37:56;;;;;;;3.30;3.07;;;7.50;85.90;;;;;;4939539;28;20451;-80
2021/12/27 05:40:22;;;;;;;2.93;2.73;;;7.50;84.40;;;;;;4937611;28;20459;-80
2021/12/27 05:42:53;;;;;;;3.33;3.03;;;7.60;85.10;;;;;;4939471;28;20462;-82
2021/12/27 05:45:19;;;;;;;3.50;3.20;;;7.60;87.20;;;;;;4937773;28;20989;-81
2021/12/27 05:47:45;;;;;;;3.47;3.20;;;7.50;86.10;;;;;;4941386;28;20462;-81
2021/12/27 05:50:14;;;;;;;3.40;2.90;;;7.60;86.00;;;;;;4937353;28;20455;-81
2021/12/27 05:52:40;;;;;;;3.20;2.90;;;7.50;88.40;;;;;;4940577;28;20462;-81
2021/12/27 05:55:08;;;;;;;3.27;3.00;;;7.50;89.30;;;;;;4938089;28;20461;-82
2021/12/27 05:57:34;;;;;;;3.60;3.30;;;7.60;86.80;;;;;;4938877;28;20233;-83
2021/12/27 06:00:00;;;;;;;3.90;3.07;;;7.50;88.50;;;;;;4937514;28;20474;-81
2021/12/27 06:02:26;;;;;;;3.57;3.27;;;7.50;89.30;;;;;;4939757;28;21159;-81
2021/12/27 06:04:51;;;;;;;4.13;3.73;;;7.50;88.90;;;;;;4937593;28;20459;-81
2021/12/27 06:07:17;;;;;;;3.60;3.30;;;7.50;89.30;;;;;;4939673;28;20319;-80
2021/12/27 06:09:43;;;;;;;3.20;2.80;;;7.40;89.20;;;;;;4938514;28;20231;-81
2021/12/27 06:12:09;;;;;;;3.70;3.40;;;7.40;90.50;;;;;;4939519;28;20687;-82
2021/12/27 06:14:35;;;;;;;3.90;3.47;;;7.30;89.20;;;;;;4938303;28;20450;-80
2021/12/27 06:17:01;;;;;;;3.57;3.27;;;7.30;89.20;;;;;;4938969;28;20835;-81
2021/12/27 06:19:27;;;;;;;3.60;3.30;;;7.30;89.90;;;;;;4937499;28;20266;-81
2021/12/27 06:21:53;;;;;;;3.60;3.30;;;7.30;90.80;;;;;;4938893;28;20231;-81
2021/12/27 06:24:19;;;;;;;3.90;3.60;;;7.30;90.90;;;;;;4937932;28;20327;-82
2021/12/27 06:26:44;;;;;;;4.30;3.60;;;7.20;90.40;;;;;;4938888;28;20446;-81
2021/12/27 06:29:10;;;;;;;3.80;3.27;;;7.20;90.30;;;;;;4937632;28;20624;-81
2021/12/27 06:31:36;;;;;;;3.80;3.50;;;7.30;90.30;;;;;;4938436;28;20257;-81
2021/12/27 06:34:02;;;;;;;3.20;2.90;;;7.20;90.00;;;;;;4938906;28;20759;-82
2021/12/27 06:36:27;;;;;;;3.53;3.23;;;7.20;90.20;;;;;;4938440;28;20227;-82
2021/12/27 06:38:53;;;;;;;3.37;2.83;;;7.10;90.70;;;;;;4937067;28;20219;-81
2021/12/27 06:41:19;;;;;;;3.13;2.90;;;7.10;90.50;;;;;;4938879;28;20332;-82
2021/12/27 06:43:44;;;;;;;4.00;3.70;;;7.00;90.50;;;;;;4938292;28;20250;-82
2021/12/27 06:46:10;;;;;;;3.80;3.50;;;7.00;90.50;;;;;;4938480;28;20227;-82
2021/12/27 06:48:36;;;;;;;3.73;3.43;;;6.90;90.50;;;;;;4939862;28;20720;-82
2021/12/27 06:51:01;;;;;;;4.17;3.77;;;6.90;90.60;;;;;;4939061;28;20235;-83
2021/12/27 06:53:30;;;;;;;3.70;3.40;;;6.80;90.70;;;;;;4938736;28;20238;-82
2021/12/27 06:55:57;;;;;;;3.90;3.60;;;6.80;90.70;;;;;;4939248;28;20643;-82
2021/12/27 06:58:23;;;;;;;4.13;3.83;;;6.80;90.90;;;;;;4937736;28;20516;-82
2021/12/27 07:00:49;;;;;;;6.80;4.50;;;6.70;90.90;;;;;;4940163;28;20905;-82
2021/12/27 07:03:15;;;;;;;4.40;4.00;;;6.70;91.20;;;;;;4937773;28;20450;-81
2021/12/27 07:05:42;;;;;;;4.40;4.00;;;6.70;91.30;;;;;;4939370;28;20462;-83
2021/12/27 07:08:08;;;;;;;5.43;3.63;;;6.70;91.20;;;;;;4938196;28;20726;-81
2021/12/27 07:10:34;;;;;;;5.00;4.60;;;6.70;91.00;;;;;;4937557;28;20835;-82
2021/12/27 07:13:03;;;;;;;5.10;4.70;;;6.60;91.40;;;;;;4937205;28;20514;-81
2021/12/27 07:15:29;;;;;;;4.37;4.00;;;6.70;91.90;;;;;;4936971;28;20473;-82
2021/12/27 07:17:56;;;;;;;4.37;3.90;;;6.60;91.20;;;;;;4938862;28;20501;-82
2021/12/27 07:20:22;;;;;;;6.17;5.03;;;6.60;90.70;;;;;;4921486;28;20857;-82
2021/12/27 07:22:47;;;;;;;5.03;4.63;;;6.60;90.90;;;;;;4900974;29;20496;-82
2021/12/27 07:25:13;;;;;;;5.90;5.40;;;6.60;90.30;;;;;;4900326;29;20259;-82
2021/12/27 07:27:39;;;;;;;4.90;4.50;;;6.70;90.20;;;;;;4902174;29;20243;-81
2021/12/27 07:30:07;;;;;;;5.90;4.73;;;6.60;90.50;;;;;;4898280;29;20238;-82
2021/12/27 07:32:33;;;;;;;5.33;4.57;;;6.60;90.80;;;;;;4900997;29;20235;-82
2021/12/27 07:34:59;;;;;;;6.23;5.63;;;6.60;91.40;;;;;;4901121;29;20475;-88
2021/12/27 07:37:25;;;;;;;5.20;4.70;;;6.60;90.70;;;;;;4912465;29;20315;-87
2021/12/27 07:39:50;;;;;;;5.30;4.77;;;6.70;90.70;;;;;;4933189;28;20813;-87
2021/12/27 07:42:16;;;;;;;5.67;5.17;;;6.70;91.30;;;;;;4934830;28;20656;-86
2021/12/27 07:44:42;;;;;;;4.97;4.50;;;6.70;91.30;;;;;;4933376;28;20724;-87
2021/12/27 07:47:07;;;;;;;4.67;4.27;;;6.70;90.50;;;;;;4919418;29;20319;-87
2021/12/27 07:49:33;;;;;;;6.20;5.70;;;6.70;90.10;;;;;;4932828;28;20715;-86
2021/12/27 07:51:59;;;;;;;5.40;4.90;;;6.80;90.20;;;;;;4934562;28;20234;-81
2021/12/27 07:54:25;;;;;;;5.40;4.90;;;6.80;90.00;;;;;;4933697;28;20642;-80
2021/12/27 07:56:50;;;;;;;5.30;4.90;;;6.90;90.00;;;;;;4932236;28;20230;-80
2021/12/27 07:59:16;;;;;;;5.13;4.67;;;6.80;89.90;;;;;;4933103;28;20571;-80
2021/12/27 08:01:42;;;;;;;5.50;5.00;;;6.80;89.90;;;;;;4933279;28;20230;-80
2021/12/27 08:04:11;;;;;;;5.10;4.67;;;6.70;90.00;;;;;;4932961;28;20261;-80
2021/12/27 08:06:37;;;;;;;6.10;4.70;;;6.80;90.60;;;;;;4956549;28;20258;-80
2021/12/27 08:09:05;;;;;;;5.13;4.23;;;6.70;90.80;;;;;;4938607;28;20646;-81
2021/12/27 08:11:30;;;;;;;4.30;3.90;;;6.70;90.50;;;;;;4940764;28;20462;-80
2021/12/27 08:13:56;;;;;;;4.50;4.13;;;6.80;90.90;;;;;;4938219;28;20500;-79
2021/12/27 08:16:24;;;;;;;4.60;4.20;;;6.80;90.80;;;;;;4943152;28;20282;-80
2021/12/27 08:18:51;;;;;;;7.70;4.47;;;6.80;90.70;;;;;;4938219;28;20236;-80
2021/12/27 08:21:18;;;;;;;5.67;4.77;;;6.80;91.20;;;;;;4940870;28;20481;-80
2021/12/27 08:23:43;;;;;;;4.87;4.47;;;6.80;91.40;;;;;;4939111;28;21130;-79
2021/12/27 08:26:09;;;;;;;4.87;4.47;;;6.80;91.10;;;;;;4941167;28;20457;-81
2021/12/27 08:28:34;;;;;;;4.80;4.40;;;6.80;91.30;;;;;;4937932;28;20233;-81
2021/12/27 08:31:00;;;;;;;4.50;4.10;;;6.90;91.00;;;;;;4941152;28;20273;-81
2021/12/27 08:33:26;;;;;;;4.00;3.70;;;6.90;90.40;;;;;;4939437;28;20257;-80
2021/12/27 08:35:51;;;;;;;4.53;4.13;;;6.90;90.80;;;;;;4945333;28;20317;-81
2021/12/27 08:38:18;;;;;;;6.27;4.73;;;6.90;91.20;;;;;;4940636;28;20235;-80
2021/12/27 08:40:44;;;;;;;4.77;4.37;;;6.90;91.40;;;;;;4953313;28;20592;-80
2021/12/27 08:43:10;;;;;;;4.43;4.03;;;7.00;91.30;;;;;;4940206;28;20461;-80
2021/12/27 08:45:36;;;;;;;5.10;4.13;;;7.00;91.10;;;;;;4941619;28;20457;-82
2021/12/27 08:48:01;;;;;;;4.03;3.63;;;7.10;91.60;;;;;;4940668;28;20511;-79
2021/12/27 08:50:27;;;;;;;3.97;3.73;;;7.20;91.30;;;;;;4939333;28;20235;-84
2021/12/27 08:52:53;;;;;;;4.40;4.00;;;7.30;93.00;;;;;;4941689;28;20470;-83
2021/12/27 08:55:19;;;;;;;4.37;4.00;;;7.50;89.60;;;;;;4931548;28;20321;-86
2021/12/27 08:57:45;;;;;;;6.20;4.53;;;7.50;87.70;;;;;;4939654;28;20258;-84
2021/12/27 09:00:15;;;;;;;4.43;4.03;;;7.50;88.70;;;;;;4941320;28;20240;-83
2021/12/27 09:02:40;;;;;;;4.63;4.23;;;7.60;84.80;;;;;;4939545;28;20451;-87
2021/12/27 09:05:06;;;;;;;4.47;4.07;;;7.60;85.10;;;;;;4943374;28;20462;-85
2021/12/27 09:07:32;;;;;;;4.93;4.47;;;7.60;86.20;;;;;;4940672;28;20238;-86
2021/12/27 09:09:58;;;;;;;5.13;4.67;;;7.50;86.90;;;;;;4941961;28;20497;-86
2021/12/27 09:12:24;;;;;;;5.30;4.67;;;7.50;87.40;;;;;;4940591;28;20354;-87
2021/12/27 09:14:50;;;;;;;5.77;4.30;;;7.50;84.60;;;;;;4943145;28;20458;-87
2021/12/27 09:17:16;;;;;;;4.77;4.33;;;7.50;83.60;;;;;;4940125;28;20451;-84
2021/12/27 09:19:43;;;;;;;4.43;4.03;;;7.60;83.70;;;;;;4942266;28;20529;-88
2021/12/27 09:22:09;;;;;;;7.70;5.13;;;7.60;83.60;;;;;;4941237;28;20871;-86
2021/12/27 09:24:34;;;;;;;4.07;3.77;;;7.60;85.00;;;;;;4942116;28;20526;-86
2021/12/27 09:27:00;;;;;;;5.00;4.50;;;7.60;82.90;;;;;;4941577;28;20525;-84
2021/12/27 09:29:26;;;;;;;6.17;5.60;;;7.50;82.40;;;;;;4941255;28;20223;-86
2021/12/27 09:31:52;;;;;;;6.07;5.57;;;7.50;85.60;;;;;;4942228;28;20227;-86
2021/12/27 09:34:19;;;;;;;6.60;5.50;;;7.50;85.20;;;;;;4940513;28;20959;-87
2021/12/27 09:36:44;;;;;;;6.50;5.90;;;7.50;85.10;;;;;;4941922;28;20443;-87
2021/12/27 09:39:10;;;;;;;6.90;5.43;;;7.70;86.70;;;;;;4940126;28;20462;-86
2021/12/27 09:41:35;;;;;;;5.63;5.13;;;7.70;85.60;;;;;;4942136;28;20604;-86
2021/12/27 09:44:04;;;;;;;5.23;4.77;;;7.70;83.00;;;;;;4940757;28;20711;-86
2021/12/27 09:46:29;;;;;;;5.50;4.70;;;7.80;81.70;;;;;;4941436;28;20234;-86
2021/12/27 09:48:59;;;;;;;5.37;4.87;;;7.80;85.30;;;;;;4944551;28;20548;-88
2021/12/27 09:51:26;;;;;;;8.50;5.60;;;7.80;82.20;;;;;;4952407;28;20570;-87
2021/12/27 09:53:53;;;;;;;4.83;4.43;;;7.90;82.10;;;;;;4942770;28;20470;-88
2021/12/27 09:56:18;;;;;;;5.60;5.20;;;7.90;82.80;;;;;;4941447;28;20542;-87
2021/12/27 09:58:44;;;;;;;5.33;4.93;;;7.90;84.30;;;;;;4943044;28;20530;-87
2021/12/27 10:01:10;;;;;;;5.37;4.87;;;7.90;83.10;;;;;;4943476;28;20959;-88
2021/12/27 10:03:48;;;;;;;5.27;4.70;;;7.90;82.20;;;;;;4945819;28;20231;-88
2021/12/27 10:06:15;;;;;;;6.10;4.13;;;7.90;82.30;;;;;;4942007;28;20505;-88
2021/12/27 10:08:50;;;;;;;4.33;3.93;;;7.90;82.60;;;;;;4943193;28;20494;-84
2021/12/27 10:11:25;;;;;;;3.60;3.30;;;7.90;81.10;;;;;;4941867;28;20454;-90
2021/12/27 10:14:05;;;;;;;4.20;3.80;;;7.90;78.10;;;;;;4923477;28;20462;-88
2021/12/27 10:16:33;;;;;;;3.73;3.37;;;7.90;77.90;;;;;;4947670;28;20962;-90
2021/12/27 10:19:01;;;;;;;4.20;3.80;;;7.90;80.30;;;;;;4945506;28;20455;-89
2021/12/27 10:21:28;;;;;;;3.43;3.13;;;7.90;79.10;;;;;;4942077;28;20449;-89
2021/12/27 10:24:14;;;;;;;6.00;3.90;;;8.00;77.30;;;;;;4958311;28;20520;-88
2021/12/27 10:26:40;;;;;;;3.60;3.30;;;8.00;80.50;;;;;;4958336;28;20454;-88
2021/12/27 10:29:28;;;;;;;4.03;3.70;;;8.00;80.20;;;;;;4957542;28;20469;-85
2021/12/27 10:31:56;;;;;;;4.60;3.50;;;7.90;82.10;;;;;;4923944;29;20459;-89
2021/12/27 10:34:26;;;;;;;4.20;3.80;;;7.90;82.40;;;;;;4955587;28;20815;-89
2021/12/27 10:37:06;;;;;;;4.93;4.53;;;7.90;84.80;;;;;;4961355;28;20455;-87
2021/12/27 10:39:52;;;;;;;4.30;4.00;;;7.90;85.80;;;;;;4931056;28;20462;-89
2021/12/27 10:42:20;;;;;;;3.87;3.53;;;7.90;87.00;;;;;;4957869;28;20862;-88
2021/12/27 10:44:51;;;;;;;3.80;3.50;;;7.80;86.80;;;;;;4959392;28;20466;-88
2021/12/27 10:47:33;;;;;;;4.23;3.70;;;7.90;87.70;;;;;;4942615;28;20502;-87
2021/12/27 10:50:16;;;;;;;3.43;3.17;;;8.10;83.50;;;;;;4945692;28;20446;-88
2021/12/27 10:52:44;;;;;;;3.50;3.17;;;8.30;77.40;;;;;;4942843;28;21011;-88
2021/12/27 10:55:12;;;;;;;3.23;3.03;;;8.30;79.70;;;;;;4946788;28;21019;-88
2021/12/27 10:57:38;;;;;;;4.00;3.70;;;8.30;80.50;;;;;;4941156;28;20490;-88
2021/12/27 11:00:31;;;;;;;4.03;3.63;;;8.40;78.90;;;;;;4943213;28;20949;-88
2021/12/27 11:02:59;;;;;;;4.33;3.93;;;8.40;80.60;;;;;;4922076;28;20234;-88
2021/12/27 11:05:26;;;;;;;4.03;3.73;;;8.40;81.30;;;;;;4921269;28;20455;-88
2021/12/27 11:07:59;;;;;;;5.87;3.80;;;8.40;79.20;;;;;;4922004;29;20468;-87
2021/12/27 11:10:25;;;;;;;3.83;3.53;;;8.40;80.50;;;;;;4919848;28;20467;-89
2021/12/27 11:12:51;;;;;;;3.43;3.10;;;8.30;82.00;;;;;;4922637;29;20452;-89
2021/12/27 11:15:17;;;;;;;3.30;3.10;;;8.30;82.30;;;;;;4921171;28;20963;-87
2021/12/27 11:17:44;;;;;;;3.67;3.30;;;8.30;83.70;;;;;;4923817;29;20477;-88
2021/12/27 11:20:11;;;;;;;4.20;3.90;;;8.40;83.80;;;;;;4938279;28;20461;-88
2021/12/27 11:22:40;;;;;;;4.30;4.00;;;8.50;81.70;;;;;;4940689;28;20469;-88
2021/12/27 11:25:34;;;;;;;3.50;2.90;;;8.50;78.20;;;;;;4938349;28;20468;-88
2021/12/27 11:28:01;;;;;;;3.00;2.80;;;8.50;77.30;;;;;;4921356;28;20467;-87
2021/12/27 11:30:30;;;;;;;3.07;2.87;;;8.60;79.60;;;;;;4939675;28;20467;-88
2021/12/27 11:33:09;;;;;;;3.90;3.60;;;8.60;80.80;;;;;;4922062;28;20471;-88
2021/12/27 11:35:56;;;;;;;6.77;3.00;;;8.60;81.00;;;;;;4940401;28;20988;-88
2021/12/27 11:38:31;;;;;;;3.87;3.53;;;8.60;82.60;;;;;;4943611;28;20447;-89
2021/12/27 11:40:57;;;;;;;3.47;3.17;;;8.60;81.30;;;;;;4951025;28;20509;-89
2021/12/27 11:43:23;;;;;;;4.50;3.80;;;8.70;78.30;;;;;;4944357;28;20522;-89
2021/12/27 11:45:52;;;;;;;3.37;2.50;;;8.70;79.10;;;;;;4945237;28;20487;-88
2021/12/27 11:48:23;;;;;;;5.60;2.70;;;8.80;78.20;;;;;;4943955;28;20238;-88
2021/12/27 11:50:58;;;;;;;3.97;2.43;;;8.80;78.70;;;;;;4946409;28;20455;-89
2021/12/27 11:53:32;;;;;;;2.87;2.67;;;8.90;77.10;;;;;;4945473;28;20458;-88
2021/12/27 11:55:58;;;;;;;4.83;3.30;;;8.80;75.30;;;;;;4940931;28;20540;-88
2021/12/27 11:58:35;;;;;;;3.73;3.43;;;8.80;75.00;;;;;;4946461;28;20443;-88
2021/12/27 12:01:03;;;;;;;2.77;2.47;;;8.90;76.20;;;;;;4945371;28;20482;-87
2021/12/27 12:03:42;;;;;;;2.87;2.67;;;8.80;74.60;;;;;;4944577;28;20545;-86
2021/12/27 12:06:36;;;;;;;3.27;3.07;;;8.90;76.30;;;;;;4943926;28;20545;-86
2021/12/27 12:09:11;;;;;;;4.07;3.67;;;8.90;76.70;;;;;;4942969;28;20471;-88
2021/12/27 12:11:37;;;;;;;2.63;2.43;;;9.10;71.30;;;;;;4945731;28;20480;-87
2021/12/27 12:14:28;;;;;;;3.20;3.00;;;9.20;73.80;;;;;;4945236;28;20986;-88
2021/12/27 12:16:55;;;;;;;3.53;3.30;;;9.10;77.40;;;;;;4948453;28;20681;-87
2021/12/27 12:19:37;;;;;;;4.83;3.13;;;9.10;77.90;;;;;;4948991;28;20447;-88
2021/12/27 12:22:03;;;;;;;3.70;3.40;;;9.10;78.20;;;;;;4946650;28;20458;-88
2021/12/27 12:24:29;;;;;;;4.73;4.33;;;9.10;78.70;;;;;;4947958;28;21013;-87
2021/12/27 12:26:56;;;;;;;5.93;3.10;;;9.00;74.90;;;;;;4947855;28;20481;-88
2021/12/27 12:29:24;;;;;;;4.40;3.57;;;9.10;74.10;;;;;;4947926;28;20254;-87
2021/12/27 12:32:02;;;;;;;2.80;2.60;;;9.20;73.80;;;;;;4947795;28;20819;-87
2021/12/27 12:34:28;;;;;;;3.93;3.57;;;9.10;73.70;;;;;;4953723;28;20437;-87
2021/12/27 12:37:03;;;;;;;3.77;3.47;;;9.10;71.30;;;;;;4960003;28;20892;-88
2021/12/27 12:39:40;;;;;;;3.90;3.60;;;9.10;71.70;;;;;;4961613;28;20430;-88
2021/12/27 12:42:06;;;;;;;3.40;3.10;;;9.00;73.20;;;;;;4960570;29;20414;-89
2021/12/27 12:44:32;;;;;;;5.23;3.53;;;9.10;74.70;;;;;;4957666;29;20914;-89
2021/12/27 12:47:01;;;;;;;4.17;3.77;;;9.20;72.90;;;;;;4956470;29;20483;-82
2021/12/27 12:49:30;;;;;;;4.10;3.70;;;9.20;75.20;;;;;;4953947;29;20175;-82
2021/12/27 12:51:59;;;;;;;5.27;3.70;;;9.10;75.10;;;;;;4953508;28;20513;-82
2021/12/27 12:54:30;;;;;;;4.07;3.67;;;9.20;75.90;;;;;;4954440;29;20423;-82
2021/12/27 12:56:57;;;;;;;4.23;3.77;;;9.20;72.40;;;;;;4954034;28;20514;-82
2021/12/27 12:59:58;;;;;;;4.77;4.37;;;9.30;75.90;;;;;;4954479;28;20923;-82
2021/12/27 13:02:31;;;;;;;3.50;2.87;;;9.30;73.50;;;;;;4948557;29;20410;-81
2021/12/27 13:05:00;;;;;;;4.07;3.03;;;9.30;75.20;;;;;;4955517;28;20522;-83
2021/12/27 13:07:53;;;;;;;3.03;2.30;;;9.40;74.40;;;;;;4954991;28;20835;-81
2021/12/27 13:10:26;;;;;;;4.40;2.93;;;9.30;75.00;;;;;;4955042;28;20418;-82